[source: ADDS]
METAR
EDMA 250550Z 03005KT CAVOK 11/09 Q1011 =
TAF
TAF EDMA 250500Z 2506/2515 05005KT CAVOK =
SR / SS: 04:08 / 18:24 UTC (Referenz EDMA 2014-04-25)
Start Links

PostHeaderIcon Weblinks

Links